createdAt,value
2022-12-07T05:00:32.443Z,9.50
2022-12-07T05:04:36.479Z,9.68
2022-12-07T05:08:39.117Z,10.13
2022-12-07T05:12:41.686Z,9.57
2022-12-07T05:16:45.983Z,10.35
2022-12-07T05:20:50.329Z,9.43
2022-12-07T05:24:52.944Z,9.07
2022-12-07T05:28:56.762Z,9.63
2022-12-07T05:33:00.113Z,8.48
2022-12-07T05:37:04.023Z,9.40
2022-12-07T05:41:08.402Z,8.80
2022-12-07T05:45:11.859Z,8.95
2022-12-07T05:53:23.023Z,8.63
2022-12-07T05:57:26.130Z,8.57
2022-12-07T06:01:28.858Z,8.33
2022-12-07T06:05:31.485Z,7.95
2022-12-07T06:09:36.338Z,8.33
2022-12-07T06:13:42.436Z,8.50
2022-12-07T06:17:49.318Z,8.07
2022-12-07T06:21:52.033Z,7.85
2022-12-07T06:25:55.957Z,7.43
2022-12-07T06:29:58.565Z,7.85
2022-12-07T06:34:01.657Z,7.07
2022-12-07T06:38:04.266Z,5.47
2022-12-07T06:42:08.190Z,5.63
2022-12-07T06:46:10.866Z,5.00
2022-12-07T06:50:14.218Z,5.70
2022-12-07T06:54:17.507Z,4.97
2022-12-07T06:58:21.493Z,5.53
2022-12-07T07:02:24.086Z,5.03
2022-12-07T07:06:27.015Z,5.27
2022-12-07T07:10:29.770Z,5.88
2022-12-07T07:14:33.819Z,4.90
2022-12-07T07:18:36.894Z,5.30
2022-12-07T07:22:39.483Z,5.03
2022-12-07T07:26:42.084Z,4.60
2022-12-07T07:30:46.557Z,5.00
2022-12-07T07:34:49.424Z,4.43
2022-12-07T07:38:52.014Z,4.17
2022-12-07T07:42:55.752Z,4.47
2022-12-07T07:46:59.706Z,4.50
2022-12-07T07:51:02.337Z,4.65
2022-12-07T07:55:05.820Z,4.43
2022-12-07T08:03:12.198Z,3.72
2022-12-07T08:07:15.788Z,4.30
2022-12-07T08:11:18.419Z,4.15
2022-12-07T08:15:20.981Z,4.07
2022-12-07T08:19:25.611Z,4.30
2022-12-07T08:23:34.805Z,3.42
2022-12-07T08:27:41.682Z,3.53
2022-12-07T08:31:44.414Z,3.10
2022-12-07T08:35:48.350Z,3.67
2022-12-07T08:39:51.032Z,3.40
2022-12-07T08:43:53.698Z,3.27
2022-12-07T08:48:02.014Z,4.27
2022-12-07T08:52:07.296Z,3.60
2022-12-07T08:56:10.012Z,3.17
2022-12-07T09:00:13.937Z,3.33
2022-12-07T09:04:17.229Z,2.97
2022-12-07T09:08:21.744Z,3.45
2022-12-07T09:12:24.381Z,3.50
2022-12-07T09:16:27.151Z,2.97
2022-12-07T09:20:29.884Z,2.78
2022-12-07T09:24:33.934Z,3.07
2022-12-07T09:28:36.559Z,2.90
2022-12-07T09:32:39.345Z,3.33
2022-12-07T09:36:43.246Z,2.97
2022-12-07T09:40:48.063Z,3.03
2022-12-07T09:44:50.664Z,3.28
2022-12-07T09:48:53.433Z,3.83
2022-12-07T09:53:04.238Z,2.93
2022-12-07T09:57:09.189Z,3.22
2022-12-07T10:01:16.109Z,3.50
2022-12-07T10:05:24.507Z,3.08
2022-12-07T10:09:30.031Z,3.00
2022-12-07T10:13:39.402Z,2.85
2022-12-07T10:17:49.291Z,2.72
2022-12-07T10:22:03.555Z,2.85
2022-12-07T10:26:28.556Z,2.88
2022-12-07T10:30:33.785Z,2.60
2022-12-07T10:34:42.168Z,3.30
2022-12-07T10:38:49.290Z,2.70
2022-12-07T10:43:03.449Z,2.70
2022-12-07T10:47:26.972Z,2.53
2022-12-07T10:51:39.916Z,2.00
2022-12-07T10:55:55.232Z,2.47
2022-12-07T11:00:06.822Z,2.35
2022-12-07T11:04:27.311Z,3.20
2022-12-07T11:08:45.937Z,3.08
2022-12-07T11:13:15.086Z,2.80
2022-12-07T11:17:25.319Z,2.70
2022-12-07T11:21:45.077Z,2.50
2022-12-07T11:25:58.172Z,2.25
2022-12-07T11:30:12.458Z,2.42
2022-12-07T11:34:26.672Z,2.40
2022-12-07T11:38:43.369Z,2.38
2022-12-07T11:42:52.409Z,2.25
2022-12-07T11:47:00.432Z,2.30
2022-12-07T11:51:05.329Z,2.33
2022-12-07T11:55:20.752Z,2.70
2022-12-07T11:59:29.464Z,1.75
2022-12-07T12:03:39.278Z,2.30
2022-12-07T12:17:27.131Z,2.40
2022-12-07T12:21:31.840Z,2.90
2022-12-07T12:25:42.053Z,2.50
2022-12-07T12:29:46.417Z,2.10
2022-12-07T12:33:51.299Z,2.63
2022-12-07T12:37:55.443Z,2.60
2022-12-07T12:42:08.045Z,2.80
2022-12-07T12:46:50.047Z,2.35
2022-12-07T12:51:31.552Z,2.33
2022-12-07T12:56:15.768Z,2.40
2022-12-07T13:04:27.740Z,2.25
2022-12-07T13:08:35.024Z,2.30
2022-12-07T13:12:38.226Z,1.85
2022-12-07T13:16:43.521Z,2.10
2022-12-07T13:20:55.204Z,2.08
2022-12-07T13:24:58.141Z,1.60
2022-12-07T13:29:12.307Z,2.17
2022-12-07T13:33:19.390Z,1.83
2022-12-07T13:37:29.129Z,1.90
2022-12-07T13:41:34.084Z,1.80
2022-12-07T13:45:52.547Z,1.63
2022-12-07T13:49:58.451Z,1.90
2022-12-07T13:54:03.155Z,1.73
2022-12-07T13:58:05.816Z,1.65
2022-12-07T14:02:22.067Z,2.00
2022-12-07T14:06:29.068Z,2.00
2022-12-07T14:10:35.045Z,2.30
2022-12-07T14:14:37.706Z,1.65
2022-12-07T14:18:42.158Z,1.50
2022-12-07T14:22:57.259Z,1.80
2022-12-07T14:27:00.794Z,1.80
2022-12-07T14:35:12.229Z,1.80
2022-12-07T14:39:16.210Z,1.92
2022-12-07T14:43:20.207Z,1.98
2022-12-07T14:56:11.155Z,2.00
2022-12-07T15:00:18.651Z,2.25
2022-12-07T15:04:21.387Z,2.10
2022-12-07T15:08:24.164Z,1.87
2022-12-07T15:12:28.243Z,2.20
2022-12-07T15:16:46.321Z,2.40
2022-12-07T15:20:53.832Z,1.95
2022-12-07T15:24:56.732Z,2.00
2022-12-07T15:29:00.830Z,2.17
2022-12-07T15:33:03.482Z,2.40
2022-12-07T15:37:07.197Z,2.20
2022-12-07T15:41:09.879Z,1.73
2022-12-07T15:45:14.381Z,1.93
2022-12-07T15:49:19.210Z,1.70
2022-12-07T15:53:22.000Z,1.83
2022-12-07T15:57:25.682Z,1.73
2022-12-07T16:01:29.913Z,2.00
2022-12-07T16:05:32.575Z,1.67
2022-12-07T16:09:35.287Z,1.80
2022-12-07T16:13:37.978Z,2.20
2022-12-07T16:17:42.168Z,2.10
2022-12-07T16:21:44.835Z,2.13
2022-12-07T16:25:47.727Z,2.53
2022-12-07T16:29:50.404Z,2.47
2022-12-07T16:33:55.789Z,2.37
2022-12-07T16:37:58.498Z,2.63
2022-12-07T16:42:01.290Z,2.70
2022-12-07T16:46:04.498Z,2.70
2022-12-07T16:50:09.521Z,2.90
2022-12-07T16:54:13.687Z,2.78
2022-12-07T16:58:18.118Z,2.70
2022-12-07T17:02:21.612Z,2.70
2022-12-07T17:06:28.867Z,2.80
2022-12-07T17:10:31.593Z,2.85
2022-12-07T17:14:52.003Z,3.00
2022-12-07T17:18:54.725Z,2.60
2022-12-07T17:22:58.755Z,2.53
2022-12-07T17:27:01.535Z,3.35
2022-12-07T17:31:07.889Z,3.03
2022-12-07T17:35:11.983Z,2.67
2022-12-07T17:39:18.266Z,2.83
2022-12-07T17:43:21.300Z,3.67
2022-12-07T17:47:24.443Z,3.88
2022-12-07T17:51:45.056Z,4.07
2022-12-07T17:56:26.453Z,3.88
2022-12-07T18:04:15.405Z,4.00
2022-12-07T18:08:18.070Z,3.80
2022-12-07T18:12:22.412Z,3.50
2022-12-07T18:16:27.158Z,3.78
2022-12-07T18:20:29.812Z,3.83
2022-12-07T18:24:36.830Z,4.13
2022-12-07T18:28:41.842Z,5.55
2022-12-07T18:32:44.544Z,6.60
2022-12-07T18:36:50.606Z,4.50
2022-12-07T18:40:53.252Z,4.13
2022-12-07T18:44:57.235Z,3.90
2022-12-07T18:49:00.559Z,3.83
2022-12-07T18:53:05.902Z,3.65
2022-12-07T18:57:08.593Z,3.97
2022-12-07T19:01:12.634Z,3.10
2022-12-07T19:05:15.340Z,3.85
2022-12-07T19:09:19.698Z,7.90
2022-12-07T19:13:22.311Z,6.88
2022-12-07T19:17:26.599Z,7.73
2022-12-07T19:21:29.583Z,5.30
2022-12-07T19:25:32.309Z,4.13
2022-12-07T19:29:35.575Z,3.57
2022-12-07T19:33:39.665Z,4.70
2022-12-07T19:37:42.289Z,4.57
2022-12-07T19:41:46.084Z,4.50
2022-12-07T19:45:49.099Z,4.40
2022-12-07T19:49:53.220Z,5.47
2022-12-07T19:53:57.026Z,5.35
2022-12-07T19:58:00.034Z,4.80
2022-12-07T20:02:03.040Z,5.07
2022-12-07T20:06:10.798Z,4.72
2022-12-07T20:10:13.551Z,5.13
2022-12-07T20:14:16.260Z,5.37
2022-12-07T20:18:18.869Z,6.47
2022-12-07T20:22:22.799Z,6.27
2022-12-07T20:26:25.530Z,5.90
2022-12-07T20:30:28.198Z,5.97
2022-12-07T20:34:30.865Z,4.93
2022-12-07T20:38:34.865Z,5.53
2022-12-07T20:42:40.630Z,5.38
2022-12-07T20:46:44.141Z,5.20
2022-12-07T20:50:46.850Z,5.75
2022-12-07T20:54:50.976Z,4.80
2022-12-07T20:58:53.600Z,4.60
2022-12-07T21:02:57.416Z,5.40
2022-12-07T21:07:00.080Z,5.35
2022-12-07T21:11:09.951Z,5.70
2022-12-07T21:15:12.706Z,6.10
2022-12-07T21:19:15.386Z,6.33
2022-12-07T21:23:18.235Z,6.78
2022-12-07T21:27:22.407Z,7.00
2022-12-07T21:31:25.538Z,7.30
2022-12-07T21:35:28.205Z,6.10
2022-12-07T21:39:31.118Z,6.30
2022-12-07T21:43:35.054Z,6.57
2022-12-07T21:47:37.674Z,7.07
2022-12-07T21:51:41.743Z,6.70
2022-12-07T21:55:45.408Z,8.27
2022-12-07T21:59:49.513Z,8.63
